Time;durP1;ratioP1;P1;durP2;ratioP2;P2;SDS_P1;SDS_P2;PMS_P1;PMS_P2;Temp;Humidity;BMP_temperature;BMP_pressure;BME280_temperature;BME280_humidity;BME280_pressure;Samples;Min_cycle;Max_cycle;Signal;HPM_P1;HPM_P2
2023/07/10 00:00:36;;;;;;;3.70;2.80;;;;;25.40;100799.00;;;;2050822;28;20487;-70
2023/07/10 00:01:36;;;;;;;3.57;3.17;;;;;25.40;100803.00;;;;2057186;28;20711;-70
2023/07/10 00:02:36;;;;;;;3.13;2.83;;;;;25.40;100797.00;;;;2060669;28;20294;-70
2023/07/10 00:03:37;;;;;;;3.33;3.03;;;;;25.40;100801.00;;;;2052107;28;20223;-70
2023/07/10 00:04:37;;;;;;;2.90;2.70;;;;;25.40;100805.00;;;;2060929;28;20568;-70
2023/07/10 00:05:38;;;;;;;2.83;2.63;;;;;25.40;100803.00;;;;2062954;28;20381;-70
2023/07/10 00:06:38;;;;;;;2.93;2.70;;;;;25.40;100801.00;;;;2062714;28;20917;-70
2023/07/10 00:07:38;;;;;;;3.17;2.87;;;;;25.40;100802.00;;;;2059505;28;20572;-71
2023/07/10 00:08:39;;;;;;;2.93;2.63;;;;;25.40;100805.00;;;;2052648;28;20322;-70
2023/07/10 00:09:39;;;;;;;3.00;2.80;;;;;25.40;100805.00;;;;2060665;28;20215;-70
2023/07/10 00:10:40;;;;;;;2.90;2.70;;;;;25.40;100808.00;;;;2069315;28;20269;-70
2023/07/10 00:11:40;;;;;;;2.80;2.60;;;;;25.40;100806.00;;;;2063716;28;20230;-70
2023/07/10 00:12:41;;;;;;;3.23;3.00;;;;;25.40;100804.00;;;;2052215;28;20279;-70
2023/07/10 00:13:41;;;;;;;2.70;2.50;;;;;25.40;100801.00;;;;2035776;28;20217;-70
2023/07/10 00:14:42;;;;;;;2.70;2.50;;;;;25.40;100802.00;;;;2062018;28;21065;-70
2023/07/10 00:15:42;;;;;;;3.13;2.83;;;;;25.40;100802.00;;;;2068594;28;20203;-70
2023/07/10 00:16:42;;;;;;;3.47;3.00;;;;;25.40;100806.00;;;;2058564;28;20800;-70
2023/07/10 00:17:45;;;;;;;3.20;2.70;;;;;25.40;100809.00;;;;2056699;28;20710;-70
2023/07/10 00:18:46;;;;;;;3.13;2.83;;;;;25.40;100811.00;;;;2050166;28;20229;-70
2023/07/10 00:19:46;;;;;;;3.07;2.77;;;;;25.40;100813.00;;;;2067149;28;20461;-70
2023/07/10 00:20:47;;;;;;;2.97;2.77;;;;;25.40;100806.00;;;;2064193;28;20486;-70
2023/07/10 00:21:47;;;;;;;3.37;3.07;;;;;25.40;100795.00;;;;2060152;28;20208;-70
2023/07/10 00:22:47;;;;;;;2.97;2.70;;;;;25.40;100812.00;;;;2062163;28;20637;-70
2023/07/10 00:23:48;;;;;;;3.47;3.17;;;;;25.40;100807.00;;;;2050235;28;20699;-70
2023/07/10 00:24:48;;;;;;;3.83;3.53;;;;;25.40;100805.00;;;;2064756;28;20218;-70
2023/07/10 00:25:48;;;;;;;2.80;2.60;;;;;25.40;100808.00;;;;2063655;28;20238;-70
2023/07/10 00:26:49;;;;;;;3.00;2.77;;;;;25.40;100810.00;;;;2055739;28;20207;-70
2023/07/10 00:27:49;;;;;;;3.13;2.83;;;;;25.40;100789.00;;;;2054904;28;20215;-70
2023/07/10 00:28:51;;;;;;;2.93;2.73;;;;;25.40;100812.00;;;;2033602;28;20216;-70
2023/07/10 00:29:51;;;;;;;3.10;2.90;;;;;25.40;100813.00;;;;2046845;28;20231;-70
2023/07/10 00:30:52;;;;;;;2.80;2.60;;;;;25.40;100812.00;;;;2064128;28;20458;-70
2023/07/10 00:31:52;;;;;;;3.90;3.30;;;;;25.40;100816.00;;;;2062145;28;20226;-70
2023/07/10 00:32:53;;;;;;;2.80;2.60;;;;;25.40;100821.00;;;;2059957;28;20215;-70
2023/07/10 00:33:54;;;;;;;2.97;2.60;;;;;25.40;100813.00;;;;2054160;28;20267;-70
2023/07/10 00:34:54;;;;;;;3.37;3.07;;;;;25.40;100814.00;;;;2060982;28;21664;-70
2023/07/10 00:35:55;;;;;;;2.90;2.67;;;;;25.40;100822.00;;;;2063957;28;20230;-70
2023/07/10 00:36:55;;;;;;;2.70;2.40;;;;;25.40;100827.00;;;;2066914;28;20705;-70
2023/07/10 00:38:02;;;;;;;3.40;3.10;;;;;25.40;100822.00;;;;2058429;28;20311;-70
2023/07/10 00:39:17;;;;;;;3.30;3.00;;;;;25.40;100822.00;;;;2044330;28;20220;-70
2023/07/10 00:40:22;;;;;;;3.20;2.93;;;;;25.40;100824.00;;;;2049048;28;20518;-70
2023/07/10 00:41:23;;;;;;;2.87;2.67;;;;;25.40;100822.00;;;;2053193;28;20533;-70
2023/07/10 00:42:23;;;;;;;2.80;2.60;;;;;25.40;100817.00;;;;2053134;28;20831;-70
2023/07/10 00:43:41;;;;;;;2.70;2.50;;;;;25.40;100818.00;;;;2044951;28;20493;-70
2023/07/10 00:44:44;;;;;;;2.70;2.50;;;;;25.40;100817.00;;;;2054002;28;20290;-70
2023/07/10 00:45:45;;;;;;;3.33;3.03;;;;;25.40;100795.00;;;;2044306;28;20449;-70
2023/07/10 00:46:48;;;;;;;3.40;3.10;;;;;25.40;100825.00;;;;2046948;28;20514;-70
2023/07/10 00:48:04;;;;;;;3.25;2.95;;;;;25.40;100829.00;;;;2063794;28;20638;-70
2023/07/10 00:49:20;;;;;;;3.00;2.80;;;;;25.40;100819.00;;;;2035538;28;20811;-70
2023/07/10 00:50:22;;;;;;;3.22;2.92;;;;;25.40;100829.00;;;;2034385;28;20623;-70
2023/07/10 00:51:27;;;;;;;3.00;2.80;;;;;25.40;100792.00;;;;2041035;28;20239;-70
2023/07/10 00:52:48;;;;;;;2.90;2.63;;;;;25.40;100824.00;;;;2047447;28;20457;-70
2023/07/10 00:53:49;;;;;;;2.97;2.78;;;;;25.40;100797.00;;;;2047876;28;20223;-70
2023/07/10 00:54:51;;;;;;;3.40;3.10;;;;;25.40;100824.00;;;;2053452;28;20209;-70
2023/07/10 00:55:52;;;;;;;3.10;2.80;;;;;25.40;100822.00;;;;2054206;28;20728;-70
2023/07/10 00:56:53;;;;;;;3.60;2.50;;;;;25.40;100823.00;;;;2046863;28;21055;-70
2023/07/10 00:57:58;;;;;;;3.13;2.90;;;;;25.40;100829.00;;;;2047874;28;20495;-70
2023/07/10 00:58:58;;;;;;;3.33;3.03;;;;;25.40;100829.00;;;;2039366;28;20497;-70
2023/07/10 01:00:28;;;;;;;3.03;2.83;;;;;25.40;100831.00;;;;2041715;28;20469;-70
2023/07/10 01:01:28;;;;;;;2.80;2.60;;;;;25.40;100821.00;;;;2039811;28;20237;-70
2023/07/10 01:02:29;;;;;;;3.20;3.00;;;;;25.40;100823.00;;;;2060484;28;20469;-70
2023/07/10 01:03:30;;;;;;;4.30;2.70;;;;;25.40;100822.00;;;;2053795;28;20664;-70
2023/07/10 01:04:30;;;;;;;2.70;2.50;;;;;25.40;100824.00;;;;2062384;28;20222;-70
2023/07/10 01:05:31;;;;;;;2.93;2.70;;;;;25.40;100827.00;;;;2057833;28;20215;-70
2023/07/10 01:06:32;;;;;;;3.30;3.00;;;;;25.40;100825.00;;;;2054498;28;20208;-70
2023/07/10 01:07:41;;;;;;;3.30;2.97;;;;;25.40;100813.00;;;;2053377;28;20506;-70
2023/07/10 01:08:45;;;;;;;3.63;3.27;;;;;25.40;100826.00;;;;2031509;29;20307;-70
2023/07/10 01:09:59;;;;;;;2.80;2.50;;;;;25.40;100822.00;;;;2047843;28;20459;-70
2023/07/10 01:10:59;;;;;;;2.70;2.50;;;;;25.40;100813.00;;;;2052721;28;20470;-70
2023/07/10 01:12:03;;;;;;;3.30;2.73;;;;;25.40;100815.00;;;;2058410;28;20983;-70
2023/07/10 01:13:04;;;;;;;3.60;3.30;;;;;25.40;100818.00;;;;2059053;28;20207;-70
2023/07/10 01:14:05;;;;;;;3.23;2.93;;;;;25.40;100822.00;;;;2044303;28;21045;-70
2023/07/10 01:15:06;;;;;;;3.03;2.73;;;;;25.40;100817.00;;;;2040685;28;20492;-70
2023/07/10 01:16:07;;;;;;;3.20;2.90;;;;;25.40;100824.00;;;;2047501;28;21008;-70
2023/07/10 01:17:07;;;;;;;3.30;3.00;;;;;25.40;100821.00;;;;2038782;28;20243;-70
2023/07/10 01:18:10;;;;;;;2.90;2.70;;;;;25.40;100821.00;;;;2047147;28;20224;-70
2023/07/10 01:19:21;;;;;;;2.90;2.70;;;;;25.40;100815.00;;;;2045052;28;20231;-70
2023/07/10 01:20:32;;;;;;;2.83;2.60;;;;;25.40;100825.00;;;;2046238;28;20474;-70
2023/07/10 01:21:33;;;;;;;2.83;2.63;;;;;25.40;100829.00;;;;2043111;28;20441;-70
2023/07/10 01:22:33;;;;;;;2.73;2.40;;;;;25.40;100814.00;;;;2053824;28;20517;-70
2023/07/10 01:23:33;;;;;;;2.80;2.60;;;;;25.40;100825.00;;;;2048239;28;20258;-70
2023/07/10 01:24:36;;;;;;;2.70;2.50;;;;;25.40;100826.00;;;;2062400;28;20241;-70
2023/07/10 01:25:50;;;;;;;3.80;3.28;;;;;25.40;100829.00;;;;2062617;28;20211;-70
2023/07/10 01:26:50;;;;;;;3.28;3.08;;;;;25.40;100830.00;;;;2056638;28;20722;-70
2023/07/10 01:27:51;;;;;;;3.23;2.93;;;;;25.40;100829.00;;;;2053094;28;20215;-70
2023/07/10 01:28:52;;;;;;;2.90;2.70;;;;;25.40;100830.00;;;;2040956;28;20735;-70
2023/07/10 01:30:04;;;;;;;2.80;2.60;;;;;25.40;100827.00;;;;2052843;28;20279;-70
2023/07/10 01:31:09;;;;;;;3.37;2.70;;;;;25.40;100828.00;;;;2050486;28;20456;-70
2023/07/10 01:32:14;;;;;;;2.60;2.40;;;;;25.40;100821.00;;;;2054729;28;20470;-70
2023/07/10 01:33:20;;;;;;;3.17;2.87;;;;;25.40;100825.00;;;;2053510;28;20465;-70
2023/07/10 01:34:23;;;;;;;3.47;2.70;;;;;25.40;100820.00;;;;2054461;28;20554;-70
2023/07/10 01:35:23;;;;;;;3.03;2.80;;;;;25.40;100821.00;;;;2058860;28;20454;-70
2023/07/10 01:36:25;;;;;;;3.63;2.87;;;;;25.40;100818.00;;;;2050252;28;20466;-70
2023/07/10 01:37:26;;;;;;;2.70;2.50;;;;;25.40;100821.00;;;;2046471;29;20227;-70
2023/07/10 01:38:29;;;;;;;2.97;2.73;;;;;25.40;100835.00;;;;2040534;28;20868;-70
2023/07/10 01:39:31;;;;;;;3.30;3.00;;;;;25.40;100806.00;;;;2053759;28;20270;-70
2023/07/10 01:40:36;;;;;;;2.73;2.53;;;;;25.40;100807.00;;;;2041519;28;20821;-70
2023/07/10 01:41:39;;;;;;;3.37;3.00;;;;;25.40;100826.00;;;;2039676;29;20474;-70
2023/07/10 01:42:39;;;;;;;2.87;2.63;;;;;25.40;100843.00;;;;2047956;28;20515;-70
2023/07/10 01:43:40;;;;;;;2.97;2.77;;;;;25.40;100832.00;;;;2055951;28;20501;-70
2023/07/10 01:44:42;;;;;;;2.83;2.63;;;;;25.40;100834.00;;;;2062821;28;20237;-70
2023/07/10 01:45:43;;;;;;;2.57;2.37;;;;;25.40;100837.00;;;;2053615;28;20885;-70
2023/07/10 01:46:43;;;;;;;3.00;2.70;;;;;25.40;100832.00;;;;2051726;28;20491;-70
2023/07/10 01:47:44;;;;;;;2.70;2.50;;;;;25.40;100830.00;;;;2057677;28;20459;-70
2023/07/10 01:48:44;;;;;;;3.33;3.03;;;;;25.40;100834.00;;;;2045481;28;20247;-70
2023/07/10 01:49:52;;;;;;;3.03;2.73;;;;;25.40;100832.00;;;;2043561;28;20649;-70
2023/07/10 01:50:52;;;;;;;3.00;2.73;;;;;25.40;100832.00;;;;2052192;28;20358;-70
2023/07/10 01:51:53;;;;;;;2.83;2.63;;;;;25.40;100825.00;;;;2064748;28;21517;-70
2023/07/10 01:52:53;;;;;;;2.80;2.60;;;;;25.40;100828.00;;;;2064844;28;20229;-70
2023/07/10 01:53:54;;;;;;;2.90;2.70;;;;;25.40;100826.00;;;;2051017;28;20443;-70
2023/07/10 01:54:54;;;;;;;2.73;2.53;;;;;25.40;100832.00;;;;2047968;28;20227;-70
2023/07/10 01:55:54;;;;;;;2.80;2.60;;;;;25.40;100835.00;;;;2045746;28;20275;-70
2023/07/10 01:56:55;;;;;;;2.60;2.33;;;;;25.40;100837.00;;;;2057877;28;20223;-70
2023/07/10 01:57:55;;;;;;;3.00;2.80;;;;;25.40;100831.00;;;;2059779;28;20221;-70
2023/07/10 01:58:55;;;;;;;3.43;3.13;;;;;25.40;100832.00;;;;2052481;28;20232;-70
2023/07/10 01:59:56;;;;;;;3.20;2.90;;;;;25.40;100835.00;;;;2063228;28;20219;-70
2023/07/10 02:00:56;;;;;;;2.73;2.40;;;;;25.40;100835.00;;;;2058443;28;20270;-70
2023/07/10 02:01:57;;;;;;;3.80;2.80;;;;;25.40;100831.00;;;;2061535;28;20288;-70
2023/07/10 02:02:57;;;;;;;2.73;2.53;;;;;25.40;100830.00;;;;2063130;28;20265;-70
2023/07/10 02:03:57;;;;;;;2.70;2.47;;;;;25.40;100839.00;;;;2053345;28;20468;-70
2023/07/10 02:04:58;;;;;;;2.90;2.70;;;;;25.40;100834.00;;;;2056316;28;20220;-70
2023/07/10 02:05:58;;;;;;;3.00;2.80;;;;;25.40;100825.00;;;;2057067;28;20257;-70
2023/07/10 02:06:58;;;;;;;3.20;2.97;;;;;25.40;100832.00;;;;2065014;28;20219;-70
2023/07/10 02:07:59;;;;;;;2.83;2.63;;;;;25.40;100807.00;;;;2065626;28;20256;-70
2023/07/10 02:08:59;;;;;;;2.67;2.47;;;;;25.40;100827.00;;;;2052630;28;20223;-70
2023/07/10 02:09:59;;;;;;;2.80;2.60;;;;;25.40;100837.00;;;;2057478;28;20238;-70
2023/07/10 02:11:00;;;;;;;2.97;2.77;;;;;25.40;100838.00;;;;2063079;28;20287;-70
2023/07/10 02:12:00;;;;;;;3.03;2.73;;;;;25.40;100832.00;;;;2063023;28;20223;-70
2023/07/10 02:13:01;;;;;;;2.43;2.23;;;;;25.40;100837.00;;;;2068856;28;20275;-70
2023/07/10 02:14:05;;;;;;;3.97;2.87;;;;;25.40;100832.00;;;;2053616;28;20578;-70
2023/07/10 02:15:06;;;;;;;2.80;2.60;;;;;25.40;100831.00;;;;2057279;28;20873;-70
2023/07/10 02:16:09;;;;;;;2.93;2.73;;;;;25.40;100831.00;;;;2052249;28;20489;-70
2023/07/10 02:17:09;;;;;;;2.90;2.70;;;;;25.40;100837.00;;;;2047206;28;21087;-70
2023/07/10 02:18:10;;;;;;;2.97;2.77;;;;;25.40;100837.00;;;;2054937;28;20463;-70
2023/07/10 02:19:10;;;;;;;2.83;2.63;;;;;25.40;100830.00;;;;2044417;28;20226;-70
2023/07/10 02:20:10;;;;;;;3.03;2.73;;;;;25.40;100829.00;;;;2038637;29;20236;-70
2023/07/10 02:21:11;;;;;;;3.10;2.80;;;;;25.40;100833.00;;;;2053742;28;20689;-70
2023/07/10 02:22:11;;;;;;;3.17;2.97;;;;;25.40;100829.00;;;;2056584;28;20773;-70
2023/07/10 02:23:11;;;;;;;3.07;2.83;;;;;25.40;100829.00;;;;2054264;28;20743;-70
2023/07/10 02:24:12;;;;;;;3.10;2.80;;;;;25.40;100834.00;;;;2058694;28;20854;-70
2023/07/10 02:25:12;;;;;;;2.93;2.63;;;;;25.40;100836.00;;;;2057461;28;20695;-70
2023/07/10 02:26:12;;;;;;;3.10;2.77;;;;;25.40;100835.00;;;;2061949;28;20229;-70
2023/07/10 02:27:13;;;;;;;2.90;2.70;;;;;25.40;100852.00;;;;2059577;28;20215;-70
2023/07/10 02:28:13;;;;;;;2.93;2.63;;;;;25.40;100858.00;;;;2050667;28;20222;-70
2023/07/10 02:29:13;;;;;;;3.13;2.83;;;;;25.40;100858.00;;;;2066191;28;20218;-70
2023/07/10 02:30:14;;;;;;;3.10;2.80;;;;;25.40;100863.00;;;;2049271;28;20232;-70
2023/07/10 02:31:14;;;;;;;3.10;2.80;;;;;25.40;100865.00;;;;2055007;28;20243;-70
2023/07/10 02:32:14;;;;;;;2.60;2.40;;;;;25.40;100868.00;;;;2066336;28;20726;-70
2023/07/10 02:33:15;;;;;;;2.87;2.67;;;;;25.40;100870.00;;;;2053230;28;20667;-70
2023/07/10 02:34:15;;;;;;;3.40;3.10;;;;;25.40;100873.00;;;;2069198;28;20795;-70
2023/07/10 02:35:15;;;;;;;3.57;3.03;;;;;25.40;100863.00;;;;2061458;28;20215;-70
2023/07/10 02:36:16;;;;;;;2.90;2.67;;;;;25.40;100867.00;;;;2056558;28;20263;-70
2023/07/10 02:37:16;;;;;;;2.80;2.60;;;;;25.40;100865.00;;;;2063652;28;20218;-70
2023/07/10 02:38:16;;;;;;;2.80;2.60;;;;;25.40;100869.00;;;;2045967;28;20310;-70
2023/07/10 02:39:17;;;;;;;2.83;2.63;;;;;25.40;100865.00;;;;2062631;28;20211;-70
2023/07/10 02:40:17;;;;;;;2.93;2.60;;;;;25.40;100866.00;;;;2056508;28;20207;-70
2023/07/10 02:41:17;;;;;;;3.37;3.07;;;;;25.40;100863.00;;;;2061821;28;20211;-70
2023/07/10 02:42:18;;;;;;;3.07;2.80;;;;;25.40;100869.00;;;;2061935;28;20223;-70
2023/07/10 02:43:19;;;;;;;2.83;2.63;;;;;25.40;100869.00;;;;2054657;28;20290;-70
2023/07/10 02:44:19;;;;;;;2.73;2.53;;;;;25.40;100866.00;;;;2056685;28;20208;-70
2023/07/10 02:45:19;;;;;;;3.60;2.73;;;;;25.40;100869.00;;;;2067760;28;21174;-70
2023/07/10 02:46:20;;;;;;;2.93;2.63;;;;;25.40;100867.00;;;;2062872;28;20223;-70
2023/07/10 02:47:20;;;;;;;3.00;2.80;;;;;25.40;100870.00;;;;2062710;28;20721;-70
2023/07/10 02:48:20;;;;;;;2.80;2.50;;;;;25.40;100867.00;;;;2051214;28;20698;-70
2023/07/10 02:49:21;;;;;;;2.97;2.67;;;;;25.40;100865.00;;;;2057909;28;20933;-70
2023/07/10 02:50:21;;;;;;;2.90;2.70;;;;;25.40;100867.00;;;;2060921;28;20835;-70
2023/07/10 02:51:21;;;;;;;3.20;2.90;;;;;25.40;100870.00;;;;2064176;28;20229;-70
2023/07/10 02:52:22;;;;;;;3.10;2.80;;;;;25.40;100866.00;;;;2062374;28;20243;-70
2023/07/10 02:53:22;;;;;;;2.97;2.67;;;;;25.30;100860.00;;;;2051868;28;20225;-70
2023/07/10 02:54:22;;;;;;;2.60;2.40;;;;;25.40;100858.00;;;;2057723;28;20215;-70
2023/07/10 02:55:23;;;;;;;3.63;2.70;;;;;25.40;100859.00;;;;2060762;28;20339;-70
2023/07/10 02:56:23;;;;;;;3.40;3.10;;;;;25.40;100859.00;;;;2060009;28;20215;-70
2023/07/10 02:57:23;;;;;;;3.10;2.80;;;;;25.40;100858.00;;;;2055568;28;20219;-70
2023/07/10 02:58:24;;;;;;;3.43;2.97;;;;;25.40;100862.00;;;;2057907;28;20206;-70
2023/07/10 02:59:26;;;;;;;2.70;2.50;;;;;25.40;100871.00;;;;2061958;28;20286;-70
2023/07/10 03:00:26;;;;;;;3.27;2.97;;;;;25.40;100868.00;;;;2070041;28;20230;-70
2023/07/10 03:01:27;;;;;;;3.10;2.80;;;;;25.40;100873.00;;;;2058887;28;20491;-70
2023/07/10 03:02:27;;;;;;;3.40;3.10;;;;;25.40;100872.00;;;;2055063;28;20262;-70
2023/07/10 03:03:27;;;;;;;3.60;3.30;;;;;25.40;100873.00;;;;2053829;28;20223;-70
2023/07/10 03:04:28;;;;;;;2.53;2.33;;;;;25.40;100873.00;;;;2056444;28;20216;-70
2023/07/10 03:05:28;;;;;;;3.63;2.80;;;;;25.40;100870.00;;;;2055217;28;20692;-70
2023/07/10 03:06:29;;;;;;;3.10;2.77;;;;;25.40;100878.00;;;;2060499;28;20225;-70
2023/07/10 03:07:30;;;;;;;3.27;2.97;;;;;25.40;100886.00;;;;2055302;28;20751;-70
2023/07/10 03:08:30;;;;;;;2.70;2.50;;;;;25.40;100883.00;;;;2048704;28;20219;-70
2023/07/10 03:09:30;;;;;;;3.70;3.40;;;;;25.40;100897.00;;;;2055383;28;20510;-70
2023/07/10 03:10:31;;;;;;;3.67;3.27;;;;;25.40;100895.00;;;;2055945;28;20255;-70
2023/07/10 03:11:31;;;;;;;3.23;3.00;;;;;25.40;100901.00;;;;2061949;28;20215;-70
2023/07/10 03:12:31;;;;;;;3.10;2.90;;;;;25.40;100902.00;;;;2054847;28;20263;-70
2023/07/10 03:13:32;;;;;;;3.10;2.90;;;;;25.40;100901.00;;;;2050793;28;20220;-70
2023/07/10 03:14:32;;;;;;;3.00;2.80;;;;;25.40;100902.00;;;;2057571;28;20577;-70
2023/07/10 03:15:32;;;;;;;3.60;3.30;;;;;25.40;100899.00;;;;2061272;28;20838;-70
2023/07/10 03:16:33;;;;;;;3.70;3.40;;;;;25.40;100897.00;;;;2061431;28;20711;-70
2023/07/10 03:17:33;;;;;;;2.90;2.70;;;;;25.40;100898.00;;;;2056619;28;20222;-70
2023/07/10 03:18:33;;;;;;;3.27;2.97;;;;;25.40;100868.00;;;;2045238;28;20762;-70
2023/07/10 03:19:34;;;;;;;3.17;2.97;;;;;25.40;100891.00;;;;2059944;28;20215;-70
2023/07/10 03:20:39;;;;;;;2.90;2.70;;;;;25.40;100900.00;;;;2061388;28;20218;-70
2023/07/10 03:21:39;;;;;;;3.35;2.90;;;;;25.40;100901.00;;;;2056535;28;20250;-70
2023/07/10 03:22:39;;;;;;;2.83;2.63;;;;;25.40;100909.00;;;;2058645;28;20610;-70
2023/07/10 03:23:40;;;;;;;3.37;3.07;;;;;25.40;100905.00;;;;2046897;28;20227;-70
2023/07/10 03:24:40;;;;;;;3.13;2.90;;;;;25.40;100906.00;;;;2068399;28;20276;-70
2023/07/10 03:25:40;;;;;;;3.27;2.97;;;;;25.40;100911.00;;;;2062783;28;20231;-70
2023/07/10 03:26:41;;;;;;;3.33;3.07;;;;;25.40;100905.00;;;;2056601;28;20575;-70
2023/07/10 03:27:41;;;;;;;3.27;2.97;;;;;25.40;100900.00;;;;2065229;28;20696;-70
2023/07/10 03:28:42;;;;;;;3.50;3.20;;;;;25.40;100906.00;;;;2038971;28;20476;-70
2023/07/10 03:29:42;;;;;;;3.07;2.77;;;;;25.40;100898.00;;;;2055439;28;20582;-70
2023/07/10 03:30:42;;;;;;;3.03;2.83;;;;;25.40;100891.00;;;;2060476;28;20217;-70
2023/07/10 03:31:43;;;;;;;3.30;3.00;;;;;25.40;100897.00;;;;2057910;28;20211;-70
2023/07/10 03:32:43;;;;;;;3.30;2.97;;;;;25.40;100898.00;;;;2058336;28;20218;-70
2023/07/10 03:33:43;;;;;;;3.20;3.00;;;;;25.40;100894.00;;;;2054077;28;20250;-70
2023/07/10 03:34:44;;;;;;;2.97;2.77;;;;;25.40;100892.00;;;;2060886;28;20278;-70
2023/07/10 03:35:48;;;;;;;3.73;3.43;;;;;25.40;100893.00;;;;2065543;28;20207;-70
2023/07/10 03:36:49;;;;;;;3.63;3.33;;;;;25.40;100897.00;;;;2063244;28;20653;-70
2023/07/10 03:37:50;;;;;;;3.00;2.70;;;;;25.40;100899.00;;;;2064151;28;20821;-70
2023/07/10 03:38:50;;;;;;;3.70;3.40;;;;;25.40;100893.00;;;;2049402;28;20474;-70
2023/07/10 03:39:50;;;;;;;3.17;2.87;;;;;25.40;100882.00;;;;2061043;28;20243;-70
2023/07/10 03:40:51;;;;;;;3.70;3.40;;;;;25.40;100885.00;;;;2065400;28;20226;-70
2023/07/10 03:41:52;;;;;;;3.63;3.33;;;;;25.40;100881.00;;;;2066025;28;20288;-70
2023/07/10 03:42:52;;;;;;;3.50;3.20;;;;;25.40;100865.00;;;;2069129;28;20942;-70
2023/07/10 03:43:53;;;;;;;3.50;3.20;;;;;25.40;100866.00;;;;2053890;28;20299;-70
2023/07/10 03:44:53;;;;;;;3.23;2.90;;;;;25.40;100868.00;;;;2063207;28;20254;-70
2023/07/10 03:45:54;;;;;;;3.10;2.90;;;;;25.40;100866.00;;;;2067548;28;20509;-70
2023/07/10 03:46:56;;;;;;;3.20;2.90;;;;;25.40;100874.00;;;;2060124;28;20204;-70
2023/07/10 03:47:57;;;;;;;2.93;2.73;;;;;25.40;100872.00;;;;2056960;28;20210;-70
2023/07/10 03:48:57;;;;;;;3.37;3.10;;;;;25.40;100877.00;;;;2050109;28;20526;-70
2023/07/10 03:49:57;;;;;;;3.43;3.13;;;;;25.40;100884.00;;;;2063915;28;20237;-70
2023/07/10 03:50:58;;;;;;;3.33;3.03;;;;;25.40;100882.00;;;;2064818;28;20221;-70
2023/07/10 03:51:58;;;;;;;3.80;2.67;;;;;25.40;100888.00;;;;2060932;28;20215;-70
2023/07/10 03:52:59;;;;;;;3.30;3.03;;;;;25.40;100884.00;;;;2059823;28;20217;-70
2023/07/10 03:53:59;;;;;;;3.50;3.20;;;;;25.40;100884.00;;;;2049931;28;20281;-70
2023/07/10 03:54:59;;;;;;;3.60;2.90;;;;;25.40;100884.00;;;;2060746;28;20328;-70
2023/07/10 03:56:00;;;;;;;3.60;3.30;;;;;25.40;100883.00;;;;2056969;28;20272;-70
2023/07/10 03:57:00;;;;;;;3.63;2.80;;;;;25.40;100887.00;;;;2059704;28;20227;-70
2023/07/10 03:58:01;;;;;;;3.37;3.10;;;;;25.40;100878.00;;;;2060357;28;20243;-70
2023/07/10 03:59:01;;;;;;;3.47;3.17;;;;;25.40;100884.00;;;;2054133;28;20242;-70
2023/07/10 04:00:04;;;;;;;3.17;2.97;;;;;25.40;100882.00;;;;2062295;28;20230;-70
2023/07/10 04:01:04;;;;;;;3.53;3.23;;;;;25.40;100881.00;;;;2058934;28;20211;-70
2023/07/10 04:02:05;;;;;;;3.83;3.53;;;;;25.40;100881.00;;;;2062415;28;20459;-70
2023/07/10 04:03:05;;;;;;;3.40;3.10;;;;;25.40;100879.00;;;;2065476;28;20252;-70
2023/07/10 04:04:05;;;;;;;3.43;3.17;;;;;25.40;100882.00;;;;2049269;28;20777;-70
2023/07/10 04:05:06;;;;;;;3.37;3.07;;;;;25.40;100889.00;;;;2056745;28;20580;-70
2023/07/10 04:06:07;;;;;;;3.40;3.20;;;;;25.40;100883.00;;;;2060929;28;20214;-70
2023/07/10 04:07:07;;;;;;;3.33;3.03;;;;;25.40;100886.00;;;;2055117;28;20300;-70
2023/07/10 04:08:07;;;;;;;3.20;2.90;;;;;25.40;100884.00;;;;2060600;28;20855;-70
2023/07/10 04:09:08;;;;;;;3.40;3.13;;;;;25.40;100886.00;;;;2046525;28;20782;-70
2023/07/10 04:10:08;;;;;;;3.70;3.40;;;;;25.40;100885.00;;;;2054700;28;20220;-70
2023/07/10 04:11:20;;;;;;;3.40;3.10;;;;;25.40;100889.00;;;;2062177;28;20222;-70
2023/07/10 04:12:20;;;;;;;3.00;2.80;;;;;25.40;100890.00;;;;2062044;28;20222;-70
2023/07/10 04:13:20;;;;;;;3.20;2.90;;;;;25.40;100894.00;;;;2053582;28;20446;-70
2023/07/10 04:14:20;;;;;;;2.87;2.67;;;;;25.40;100879.00;;;;2061493;28;20545;-70
2023/07/10 04:15:21;;;;;;;3.63;3.33;;;;;25.40;100894.00;;;;2064112;28;20230;-70
2023/07/10 04:16:23;;;;;;;3.03;2.83;;;;;25.40;100896.00;;;;2065981;28;20222;-70
2023/07/10 04:17:23;;;;;;;2.87;2.67;;;;;25.40;100897.00;;;;2058091;28;20282;-70
2023/07/10 04:18:29;;;;;;;3.63;3.33;;;;;25.40;100892.00;;;;2045663;28;20466;-70
2023/07/10 04:19:29;;;;;;;3.53;3.23;;;;;25.40;100897.00;;;;2059631;28;20263;-70
2023/07/10 04:20:30;;;;;;;3.20;2.90;;;;;25.40;100908.00;;;;2064249;28;20893;-70
2023/07/10 04:21:31;;;;;;;3.10;2.90;;;;;25.40;100901.00;;;;2064729;28;20211;-70
2023/07/10 04:22:31;;;;;;;3.83;3.53;;;;;25.40;100898.00;;;;2061202;28;20225;-70
2023/07/10 04:23:31;;;;;;;3.70;3.40;;;;;25.40;100908.00;;;;2048810;28;20467;-70
2023/07/10 04:24:32;;;;;;;3.53;3.23;;;;;25.40;100911.00;;;;2067654;28;20237;-70
2023/07/10 04:25:32;;;;;;;3.33;3.03;;;;;25.40;100907.00;;;;2055419;28;20215;-70
2023/07/10 04:26:33;;;;;;;2.83;2.63;;;;;25.40;100907.00;;;;2056683;28;20242;-70
2023/07/10 04:27:33;;;;;;;3.50;3.10;;;;;25.40;100913.00;;;;2063806;28;20218;-70
2023/07/10 04:28:33;;;;;;;3.30;3.00;;;;;25.40;100911.00;;;;2051337;28;20230;-70
2023/07/10 04:29:34;;;;;;;3.23;2.93;;;;;25.40;100902.00;;;;2070394;28;20233;-70
2023/07/10 04:30:34;;;;;;;4.13;3.73;;;;;25.40;100908.00;;;;2059079;28;20228;-70
2023/07/10 04:31:35;;;;;;;3.37;3.07;;;;;25.40;100911.00;;;;2055095;28;20837;-70
2023/07/10 04:32:35;;;;;;;2.93;2.73;;;;;25.40;100906.00;;;;2066406;28;20694;-70
2023/07/10 04:33:36;;;;;;;3.60;3.30;;;;;25.40;100912.00;;;;2053826;28;20687;-70
2023/07/10 04:34:36;;;;;;;3.67;3.37;;;;;25.40;100908.00;;;;2056632;28;20237;-70
2023/07/10 04:35:38;;;;;;;3.50;3.20;;;;;25.40;100915.00;;;;2059641;28;20457;-70
2023/07/10 04:36:39;;;;;;;3.05;2.75;;;;;25.40;100908.00;;;;2056587;28;20238;-70
2023/07/10 04:37:39;;;;;;;3.87;3.57;;;;;25.40;100914.00;;;;2064977;28;20206;-70
2023/07/10 04:38:40;;;;;;;3.40;3.10;;;;;25.40;100906.00;;;;2050726;28;20303;-70
2023/07/10 04:39:40;;;;;;;3.73;3.43;;;;;25.40;100903.00;;;;2063327;28;20579;-70
2023/07/10 04:40:43;;;;;;;3.70;3.40;;;;;25.40;100905.00;;;;2062200;28;20602;-70
2023/07/10 04:41:44;;;;;;;3.67;3.10;;;;;25.40;100909.00;;;;2049172;28;20235;-70
2023/07/10 04:42:44;;;;;;;3.10;2.90;;;;;25.40;100909.00;;;;2054665;28;20475;-70
2023/07/10 04:43:45;;;;;;;3.77;3.40;;;;;25.40;100909.00;;;;2052161;28;20217;-70
2023/07/10 04:44:45;;;;;;;3.13;2.90;;;;;25.40;100915.00;;;;2053214;28;20211;-70
2023/07/10 04:45:45;;;;;;;4.83;3.40;;;;;25.40;100922.00;;;;2066974;28;20206;-70
2023/07/10 04:46:46;;;;;;;3.50;3.20;;;;;25.40;100924.00;;;;2058452;28;20213;-70
2023/07/10 04:47:46;;;;;;;3.60;3.30;;;;;25.40;100920.00;;;;2061911;28;20211;-70
2023/07/10 04:48:46;;;;;;;3.43;3.13;;;;;25.40;100923.00;;;;2053976;28;20641;-70
2023/07/10 04:49:47;;;;;;;3.17;2.90;;;;;25.40;100916.00;;;;2063020;28;20750;-70
2023/07/10 04:50:48;;;;;;;3.50;3.20;;;;;25.40;100927.00;;;;2067449;28;20633;-70
2023/07/10 04:51:48;;;;;;;3.65;3.35;;;;;25.40;100922.00;;;;2057585;28;20335;-70
2023/07/10 04:52:48;;;;;;;3.37;3.07;;;;;25.40;100922.00;;;;2056248;28;20211;-70
2023/07/10 04:53:49;;;;;;;3.30;3.00;;;;;25.40;100922.00;;;;2055859;28;20278;-70
2023/07/10 04:54:50;;;;;;;3.57;3.27;;;;;25.40;100925.00;;;;2065200;28;20211;-70
2023/07/10 04:55:51;;;;;;;3.47;3.17;;;;;25.40;100922.00;;;;2064389;28;20593;-70
2023/07/10 04:56:52;;;;;;;3.33;3.03;;;;;25.40;100925.00;;;;2061990;28;20902;-70
2023/07/10 04:57:52;;;;;;;3.63;3.33;;;;;25.40;100929.00;;;;2060549;28;20487;-70
2023/07/10 04:58:54;;;;;;;3.00;2.70;;;;;25.40;100932.00;;;;2049749;28;20506;-70
2023/07/10 04:59:54;;;;;;;3.20;2.93;;;;;25.40;100921.00;;;;2055670;28;20297;-70
2023/07/10 05:00:56;;;;;;;3.30;3.10;;;;;25.40;100938.00;;;;2059072;28;20454;-70
2023/07/10 05:01:57;;;;;;;3.10;2.80;;;;;25.40;100936.00;;;;2059482;28;20215;-70
2023/07/10 05:02:57;;;;;;;3.60;3.30;;;;;25.40;100930.00;;;;2062207;28;20208;-70
2023/07/10 05:03:57;;;;;;;3.40;3.10;;;;;25.40;100933.00;;;;2051045;28;20215;-70